Time;durP1;ratioP1;P1;durP2;ratioP2;P2;SDS_P1;SDS_P2;PMS_P1;PMS_P2;Temp;Humidity;BMP_temperature;BMP_pressure;BME280_temperature;BME280_humidity;BME280_pressure;Samples;Min_cycle;Max_cycle;Signal;HPM_P1;HPM_P2
2021/03/04 00:01:14;;;;;;;5.10;2.23;;;22.70;47.90;;;;;;5032656;28;20172;-68
2021/03/04 00:03:39;;;;;;;2.87;2.10;;;22.70;47.90;;;;;;5032597;28;20172;-68
2021/03/04 00:06:05;;;;;;;2.37;1.90;;;22.80;48.00;;;;;;5031330;28;20184;-67
2021/03/04 00:08:31;;;;;;;2.50;1.80;;;22.80;48.00;;;;;;5032578;28;20195;-67
2021/03/04 00:10:57;;;;;;;2.20;1.80;;;22.80;48.60;;;;;;5032590;28;20421;-68
2021/03/04 00:13:22;;;;;;;3.77;2.50;;;22.80;47.90;;;;;;5032594;28;20180;-68
2021/03/04 00:15:50;;;;;;;2.00;1.77;;;22.80;47.90;;;;;;5033321;28;20184;-68
2021/03/04 00:18:15;;;;;;;2.30;2.03;;;22.80;47.90;;;;;;5033170;28;20290;-68
2021/03/04 00:20:41;;;;;;;2.30;2.07;;;22.80;47.90;;;;;;5032731;28;20509;-68
2021/03/04 00:23:07;;;;;;;1.90;1.70;;;22.80;47.90;;;;;;5032777;28;20172;-68
2021/03/04 00:25:35;;;;;;;2.80;2.10;;;22.80;47.90;;;;;;5032747;28;20535;-68
2021/03/04 00:28:02;;;;;;;1.90;1.70;;;22.80;47.90;;;;;;5031125;28;20215;-69
2021/03/04 00:30:28;;;;;;;2.23;1.93;;;22.80;47.90;;;;;;5032477;28;20418;-68
2021/03/04 00:32:54;;;;;;;2.07;1.90;;;22.80;47.90;;;;;;5032375;28;20419;-68
2021/03/04 00:35:20;;;;;;;2.60;1.90;;;22.80;47.90;;;;;;5035806;28;20279;-68
2021/03/04 00:37:46;;;;;;;2.03;1.57;;;22.80;47.90;;;;;;5035707;28;20481;-68
2021/03/04 00:40:14;;;;;;;2.67;1.80;;;22.80;47.80;;;;;;5036107;28;20191;-68
2021/03/04 00:42:40;;;;;;;1.70;1.60;;;22.80;47.80;;;;;;5035833;28;20254;-67
2021/03/04 00:45:11;;;;;;;2.00;1.80;;;22.80;47.80;;;;;;5034553;28;20434;-68
2021/03/04 00:47:37;;;;;;;2.20;1.80;;;22.80;47.80;;;;;;5034474;28;20547;-68
2021/03/04 00:50:05;;;;;;;2.37;2.17;;;22.80;47.80;;;;;;5035634;28;20422;-68
2021/03/04 00:52:30;;;;;;;2.10;1.87;;;22.80;47.80;;;;;;5035661;28;20508;-68
2021/03/04 00:54:56;;;;;;;3.53;2.30;;;22.80;47.80;;;;;;5035668;28;20858;-67
2021/03/04 00:57:22;;;;;;;3.23;1.77;;;22.80;47.80;;;;;;5035754;28;20287;-68
2021/03/04 00:59:48;;;;;;;2.37;2.17;;;22.80;47.80;;;;;;5034188;28;20227;-68
2021/03/04 01:02:13;;;;;;;1.90;1.70;;;22.80;47.80;;;;;;5035449;28;20504;-68
2021/03/04 01:04:39;;;;;;;2.53;2.33;;;22.80;47.90;;;;;;5035396;28;20179;-68
2021/03/04 01:07:05;;;;;;;1.97;1.73;;;22.80;47.90;;;;;;5035255;28;20179;-69
2021/03/04 01:09:30;;;;;;;2.17;1.60;;;22.80;47.90;;;;;;5035312;28;20258;-68
2021/03/04 01:11:56;;;;;;;1.80;1.50;;;22.70;47.80;;;;;;5035311;28;20176;-68
2021/03/04 01:14:21;;;;;;;2.33;1.80;;;22.70;47.80;;;;;;5035278;28;20178;-68
2021/03/04 01:16:47;;;;;;;1.93;1.80;;;22.70;47.80;;;;;;5035252;28;20186;-68
2021/03/04 01:19:13;;;;;;;2.20;1.93;;;22.70;47.80;;;;;;5033771;28;20207;-67
2021/03/04 01:21:38;;;;;;;1.90;1.70;;;22.70;47.80;;;;;;5033860;28;20598;-69
2021/03/04 01:24:06;;;;;;;2.23;2.03;;;22.70;47.90;;;;;;5035326;28;20258;-68
2021/03/04 01:26:32;;;;;;;2.07;1.87;;;22.70;47.90;;;;;;5035031;28;20600;-69
2021/03/04 01:28:57;;;;;;;2.00;1.80;;;22.70;47.90;;;;;;5034929;28;20505;-68
2021/03/04 01:31:23;;;;;;;2.17;1.87;;;22.70;47.90;;;;;;5034913;28;20172;-68
2021/03/04 01:33:48;;;;;;;1.97;1.50;;;22.70;47.90;;;;;;5034917;28;20187;-68
2021/03/04 01:36:14;;;;;;;1.83;1.70;;;22.70;47.90;;;;;;5033521;28;20175;-69
2021/03/04 01:38:49;;;;;;;2.50;2.30;;;22.70;47.90;;;;;;5035105;28;20298;-67
2021/03/04 01:41:15;;;;;;;1.90;1.80;;;22.70;47.90;;;;;;5034015;28;20183;-68
2021/03/04 01:43:40;;;;;;;1.70;1.43;;;22.60;47.90;;;;;;5033468;28;20419;-68
2021/03/04 01:46:06;;;;;;;2.90;1.50;;;22.60;47.90;;;;;;5034459;28;20250;-68
2021/03/04 01:48:31;;;;;;;2.10;1.70;;;22.60;47.90;;;;;;5034540;28;20234;-66
2021/03/04 01:50:57;;;;;;;2.07;1.87;;;22.60;47.90;;;;;;5034554;28;20223;-68
2021/03/04 01:53:23;;;;;;;1.73;1.63;;;22.60;47.90;;;;;;5034542;28;20171;-68
2021/03/04 01:55:50;;;;;;;2.10;1.90;;;22.60;47.90;;;;;;5034417;28;20426;-68
2021/03/04 01:58:16;;;;;;;2.30;1.90;;;22.60;48.00;;;;;;5032976;28;20203;-68
2021/03/04 02:00:42;;;;;;;2.00;1.73;;;22.60;48.00;;;;;;5034331;28;20401;-68
2021/03/04 02:03:07;;;;;;;2.20;2.00;;;22.60;48.00;;;;;;5034300;28;20164;-68
2021/03/04 02:05:33;;;;;;;1.80;1.50;;;22.60;48.00;;;;;;5034480;28;20164;-69
2021/03/04 02:08:24;;;;;;;1.87;1.60;;;22.60;48.00;;;;;;5034222;28;20214;-68
2021/03/04 02:10:57;;;;;;;1.70;1.60;;;22.60;48.00;;;;;;5034270;28;20160;-68
2021/03/04 02:13:23;;;;;;;2.03;1.70;;;22.50;48.00;;;;;;5034157;28;20387;-68
2021/03/04 02:16:06;;;;;;;2.20;1.83;;;22.50;48.00;;;;;;5034623;28;20817;-67
2021/03/04 02:18:36;;;;;;;1.50;1.40;;;22.60;48.00;;;;;;5032864;28;20290;-69
2021/03/04 02:21:32;;;;;;;1.83;1.73;;;22.50;48.00;;;;;;5033939;28;20457;-68
2021/03/04 02:24:21;;;;;;;2.50;1.87;;;22.50;47.90;;;;;;5033999;28;20473;-68
2021/03/04 02:27:04;;;;;;;1.70;1.50;;;22.50;48.00;;;;;;5034016;28;20781;-69
2021/03/04 02:29:36;;;;;;;1.87;1.77;;;22.50;48.00;;;;;;5033817;28;20434;-69
2021/03/04 02:32:03;;;;;;;1.73;1.60;;;22.50;48.10;;;;;;5033352;28;20446;-68
2021/03/04 02:34:29;;;;;;;2.03;1.63;;;22.50;48.00;;;;;;5034271;28;20411;-69
2021/03/04 02:36:57;;;;;;;1.97;1.77;;;22.50;48.00;;;;;;5034014;28;20438;-68
2021/03/04 02:39:24;;;;;;;1.63;1.40;;;22.50;48.00;;;;;;5033635;28;20520;-68
2021/03/04 02:41:51;;;;;;;2.13;1.93;;;22.50;48.10;;;;;;5033636;28;20413;-69
2021/03/04 02:44:20;;;;;;;1.87;1.60;;;22.50;48.00;;;;;;5033843;28;20467;-68
2021/03/04 02:46:46;;;;;;;2.10;1.83;;;22.50;48.00;;;;;;5033486;28;20771;-68
2021/03/04 02:49:12;;;;;;;1.60;1.50;;;22.50;48.00;;;;;;5033487;28;20438;-69
2021/03/04 02:51:40;;;;;;;1.40;1.30;;;22.50;48.00;;;;;;5033486;28;20425;-68
2021/03/04 02:54:06;;;;;;;1.60;1.50;;;22.50;48.60;;;;;;5033445;28;20410;-69
2021/03/04 02:56:33;;;;;;;1.83;1.60;;;22.50;48.00;;;;;;5032938;28;20441;-68
2021/03/04 02:59:05;;;;;;;1.83;1.60;;;22.50;48.00;;;;;;5033187;28;20977;-68
2021/03/04 03:01:32;;;;;;;3.40;1.50;;;22.50;48.10;;;;;;5033306;28;20457;-69
2021/03/04 03:03:59;;;;;;;2.03;1.80;;;22.50;48.10;;;;;;5033267;28;20493;-69
2021/03/04 03:06:26;;;;;;;1.60;1.50;;;22.40;48.00;;;;;;5033256;28;20452;-68
2021/03/04 03:08:53;;;;;;;2.17;1.97;;;22.40;48.00;;;;;;5033134;28;20925;-68
2021/03/04 03:11:20;;;;;;;1.83;1.60;;;22.40;48.00;;;;;;5033144;28;20422;-69
2021/03/04 03:13:54;;;;;;;1.50;1.40;;;22.40;48.00;;;;;;5031891;28;20437;-67
2021/03/04 03:16:21;;;;;;;2.27;1.60;;;22.50;48.10;;;;;;5031819;28;20493;-68
2021/03/04 03:18:47;;;;;;;2.10;1.90;;;22.40;48.00;;;;;;5033077;28;20520;-68
2021/03/04 03:21:13;;;;;;;1.83;1.70;;;22.40;48.00;;;;;;5031689;28;20509;-68
2021/03/04 03:23:38;;;;;;;1.70;1.57;;;22.40;48.00;;;;;;5032071;28;20422;-69
2021/03/04 03:26:04;;;;;;;1.83;1.63;;;22.40;48.00;;;;;;5031866;28;20168;-68
2021/03/04 03:28:30;;;;;;;1.70;1.53;;;22.40;48.10;;;;;;5032898;28;20202;-69
2021/03/04 03:30:56;;;;;;;1.90;1.57;;;22.40;48.10;;;;;;5031691;28;20669;-68
2021/03/04 03:33:23;;;;;;;1.67;1.53;;;22.40;48.10;;;;;;5032938;28;20171;-67
2021/03/04 03:35:49;;;;;;;1.60;1.50;;;22.40;48.10;;;;;;5032910;28;20497;-68
2021/03/04 03:38:16;;;;;;;1.87;1.60;;;22.40;48.10;;;;;;5032663;28;20462;-69
2021/03/04 03:40:47;;;;;;;1.40;1.30;;;22.30;48.00;;;;;;5032899;28;20897;-68
2021/03/04 03:43:15;;;;;;;4.27;1.50;;;22.40;48.10;;;;;;5032901;28;20854;-67
2021/03/04 03:45:49;;;;;;;1.70;1.60;;;22.40;48.10;;;;;;5032773;28;20909;-68
2021/03/04 03:48:17;;;;;;;1.20;1.10;;;22.30;48.00;;;;;;5033024;28;20434;-68
2021/03/04 03:50:44;;;;;;;1.90;1.70;;;22.30;48.00;;;;;;5032757;28;20505;-68
2021/03/04 03:53:14;;;;;;;1.40;1.30;;;22.30;48.00;;;;;;5032778;28;20493;-67
2021/03/04 03:55:50;;;;;;;1.80;1.50;;;22.30;48.00;;;;;;5032775;28;20409;-68
2021/03/04 03:58:21;;;;;;;2.37;1.50;;;22.30;48.00;;;;;;5031354;28;21032;-68
2021/03/04 04:00:48;;;;;;;1.73;1.60;;;22.30;48.10;;;;;;5033804;28;20485;-69
2021/03/04 04:03:15;;;;;;;1.73;1.50;;;22.30;48.10;;;;;;5032730;28;20403;-69
2021/03/04 04:05:41;;;;;;;1.80;1.50;;;22.30;48.10;;;;;;5032653;28;20433;-67
2021/03/04 04:08:07;;;;;;;1.73;1.37;;;22.30;48.10;;;;;;5034202;28;20426;-67
2021/03/04 04:10:36;;;;;;;2.53;1.87;;;22.30;48.10;;;;;;5035105;28;20860;-68
2021/03/04 04:13:02;;;;;;;1.47;1.27;;;22.30;48.10;;;;;;5036378;28;20171;-68
2021/03/04 04:15:29;;;;;;;1.33;1.23;;;22.30;48.10;;;;;;5035075;28;20913;-68
2021/03/04 04:18:00;;;;;;;1.70;1.40;;;22.30;48.10;;;;;;5036141;28;20933;-67
2021/03/04 04:20:26;;;;;;;1.80;1.67;;;22.30;48.10;;;;;;5036817;28;20925;-66
2021/03/04 04:22:54;;;;;;;2.00;1.80;;;22.30;48.10;;;;;;5036204;28;20417;-67
2021/03/04 04:25:21;;;;;;;2.10;1.90;;;22.30;48.10;;;;;;5034883;28;20424;-68
2021/03/04 04:27:54;;;;;;;2.43;1.50;;;22.30;48.10;;;;;;5036064;28;20480;-67
2021/03/04 04:30:22;;;;;;;2.10;1.50;;;22.30;48.00;;;;;;5034843;28;20414;-68
2021/03/04 04:32:47;;;;;;;1.53;1.30;;;22.30;48.10;;;;;;5034800;28;20414;-67
2021/03/04 04:35:14;;;;;;;1.57;1.47;;;22.30;48.10;;;;;;5036029;28;20428;-66
2021/03/04 04:37:40;;;;;;;1.63;1.50;;;22.30;48.00;;;;;;5034615;28;20203;-67
2021/03/04 04:40:07;;;;;;;2.10;1.70;;;22.30;48.10;;;;;;5035862;28;20450;-68
2021/03/04 04:42:33;;;;;;;1.80;1.47;;;22.30;48.10;;;;;;5036058;28;20171;-68
2021/03/04 04:45:00;;;;;;;1.53;1.17;;;22.30;48.10;;;;;;5035814;28;20406;-68
2021/03/04 04:47:26;;;;;;;2.03;1.77;;;22.20;48.00;;;;;;5035704;28;20430;-68
2021/03/04 04:49:51;;;;;;;1.37;1.20;;;22.30;48.10;;;;;;5035732;28;20406;-68
2021/03/04 04:52:17;;;;;;;2.00;1.50;;;22.20;48.00;;;;;;5035682;28;20686;-67
2021/03/04 04:54:43;;;;;;;1.53;1.43;;;22.20;48.00;;;;;;5034431;28;20258;-66
2021/03/04 04:57:08;;;;;;;1.67;1.47;;;22.20;48.10;;;;;;5034251;28;20175;-68
2021/03/04 04:59:34;;;;;;;1.90;1.57;;;22.20;48.10;;;;;;5035548;28;20194;-67
2021/03/04 05:02:01;;;;;;;1.60;1.40;;;22.20;48.10;;;;;;5034561;28;20176;-66
2021/03/04 05:04:27;;;;;;;2.10;1.77;;;22.20;48.10;;;;;;5035719;28;20171;-67
2021/03/04 05:06:52;;;;;;;1.27;1.17;;;22.20;48.10;;;;;;5035409;28;20410;-65
2021/03/04 05:09:18;;;;;;;1.60;1.50;;;22.20;48.10;;;;;;5034041;28;20542;-68
2021/03/04 05:11:43;;;;;;;2.00;1.80;;;22.20;48.20;;;;;;5035342;28;20252;-68
2021/03/04 05:14:09;;;;;;;1.40;1.10;;;22.10;48.10;;;;;;5034060;28;20230;-68
2021/03/04 05:16:35;;;;;;;1.40;1.20;;;22.20;48.20;;;;;;5035225;28;20176;-67
2021/03/04 05:19:00;;;;;;;1.60;1.50;;;22.20;48.20;;;;;;5034285;28;20247;-67
2021/03/04 05:21:26;;;;;;;1.60;1.47;;;22.10;48.20;;;;;;5035042;28;20638;-68
2021/03/04 05:23:51;;;;;;;1.50;1.40;;;22.20;48.20;;;;;;5035334;28;20627;-68
2021/03/04 05:26:17;;;;;;;1.67;1.40;;;22.20;48.20;;;;;;5034988;28;20202;-68
2021/03/04 05:28:43;;;;;;;1.70;1.50;;;22.10;48.10;;;;;;5034947;28;20215;-68
2021/03/04 05:31:08;;;;;;;1.17;1.03;;;22.10;48.10;;;;;;5035226;28;20214;-67
2021/03/04 05:33:34;;;;;;;1.93;1.50;;;22.10;48.10;;;;;;5035126;28;20182;-67
2021/03/04 05:36:00;;;;;;;1.70;1.40;;;22.10;48.00;;;;;;5035117;28;20186;-68
2021/03/04 05:38:25;;;;;;;1.60;1.30;;;22.20;48.10;;;;;;5034601;28;20258;-68
2021/03/04 05:40:51;;;;;;;1.40;1.30;;;22.20;48.10;;;;;;5035737;28;20442;-69
2021/03/04 05:43:17;;;;;;;1.87;1.50;;;22.20;48.00;;;;;;5035048;28;20171;-67
2021/03/04 05:45:47;;;;;;;2.40;1.60;;;22.20;48.00;;;;;;5034668;28;20167;-68
2021/03/04 05:48:18;;;;;;;1.30;1.20;;;22.20;48.00;;;;;;5034667;28;20442;-68
2021/03/04 05:50:49;;;;;;;1.50;1.40;;;22.20;48.00;;;;;;5034656;28;20395;-68
2021/03/04 05:53:18;;;;;;;1.83;1.40;;;22.20;47.90;;;;;;5034842;28;20482;-68
2021/03/04 05:55:44;;;;;;;1.67;1.43;;;22.30;48.00;;;;;;5034712;28;20418;-69
2021/03/04 05:58:12;;;;;;;3.00;2.80;;;22.30;47.90;;;;;;5034331;28;20481;-68
2021/03/04 06:00:40;;;;;;;1.47;1.37;;;22.30;47.90;;;;;;5034397;28;20414;-68
2021/03/04 06:03:06;;;;;;;1.70;1.30;;;22.30;47.90;;;;;;5034236;28;20447;-68
2021/03/04 06:05:32;;;;;;;1.47;1.30;;;22.30;47.80;;;;;;5034293;28;20814;-68
2021/03/04 06:07:58;;;;;;;1.70;1.37;;;22.30;47.80;;;;;;5034139;28;20195;-68
2021/03/04 06:10:23;;;;;;;2.03;1.50;;;22.40;47.90;;;;;;5034274;28;20785;-68
2021/03/04 06:12:49;;;;;;;1.47;1.30;;;22.30;48.30;;;;;;5034169;28;20172;-68
2021/03/04 06:15:14;;;;;;;2.17;1.60;;;22.40;47.80;;;;;;5034146;28;20512;-68
2021/03/04 06:17:55;;;;;;;1.87;1.77;;;22.40;47.80;;;;;;5033916;28;20223;-67
2021/03/04 06:20:21;;;;;;;1.77;1.60;;;22.30;47.70;;;;;;5034025;28;20577;-68
2021/03/04 06:22:48;;;;;;;2.00;1.67;;;22.40;47.70;;;;;;5033989;28;20444;-68
2021/03/04 06:25:15;;;;;;;1.50;1.23;;;22.40;47.70;;;;;;5033876;28;20410;-67
2021/03/04 06:27:46;;;;;;;1.77;1.57;;;22.40;47.70;;;;;;5033792;28;20452;-67
2021/03/04 06:30:16;;;;;;;1.63;1.50;;;22.40;47.70;;;;;;5034115;28;20865;-66
2021/03/04 06:32:58;;;;;;;1.67;1.57;;;22.40;47.70;;;;;;5033793;28;20901;-66
2021/03/04 06:35:34;;;;;;;1.80;1.50;;;22.40;47.70;;;;;;5033772;28;20481;-67
2021/03/04 06:38:00;;;;;;;1.70;1.60;;;22.40;47.70;;;;;;5033525;28;20944;-68
2021/03/04 06:40:31;;;;;;;1.70;1.50;;;22.40;47.70;;;;;;5033583;28;20750;-66
2021/03/04 06:42:58;;;;;;;1.70;1.60;;;22.40;47.70;;;;;;5033680;28;20753;-67
2021/03/04 06:45:31;;;;;;;2.60;2.20;;;22.40;47.70;;;;;;5032537;28;20438;-68
2021/03/04 06:48:13;;;;;;;2.20;1.37;;;22.40;47.70;;;;;;5033707;28;20426;-67
2021/03/04 06:50:41;;;;;;;3.83;1.90;;;22.40;47.70;;;;;;5033766;28;20406;-68
2021/03/04 06:53:19;;;;;;;1.80;1.50;;;22.40;47.70;;;;;;5033344;28;20489;-66
2021/03/04 06:55:56;;;;;;;1.63;1.53;;;22.40;47.70;;;;;;5033455;28;20812;-68
2021/03/04 06:58:32;;;;;;;2.03;1.63;;;22.40;47.70;;;;;;5033152;28;20529;-68
2021/03/04 07:01:15;;;;;;;2.00;1.77;;;22.40;47.70;;;;;;5032048;28;20418;-68
2021/03/04 07:03:46;;;;;;;3.20;1.90;;;22.40;47.70;;;;;;5033515;28;20426;-67
2021/03/04 07:06:13;;;;;;;2.77;2.53;;;22.50;47.80;;;;;;5033485;28;20411;-67
2021/03/04 07:08:44;;;;;;;3.20;2.10;;;22.50;47.80;;;;;;5033208;28;20432;-68
2021/03/04 07:11:12;;;;;;;2.50;2.30;;;22.50;47.90;;;;;;5033209;28;20401;-66
2021/03/04 07:13:39;;;;;;;2.03;1.80;;;22.60;47.90;;;;;;5033121;28;20418;-66
2021/03/04 07:16:07;;;;;;;2.63;2.40;;;22.50;47.80;;;;;;5032324;28;20476;-66
2021/03/04 07:18:43;;;;;;;2.80;2.27;;;22.60;47.90;;;;;;5031651;28;20466;-67
2021/03/04 07:21:15;;;;;;;3.93;2.00;;;22.60;47.90;;;;;;5032996;28;20473;-66
2021/03/04 07:23:42;;;;;;;2.43;2.13;;;22.60;47.90;;;;;;5033232;28;20406;-66
2021/03/04 07:26:09;;;;;;;2.50;2.30;;;22.60;47.90;;;;;;5032966;28;20411;-67
2021/03/04 07:28:37;;;;;;;3.30;2.00;;;22.60;47.90;;;;;;5032900;28;20521;-67
2021/03/04 07:31:03;;;;;;;2.70;2.17;;;22.70;48.00;;;;;;5032841;28;20917;-65
2021/03/04 07:33:30;;;;;;;3.37;2.70;;;22.70;47.90;;;;;;5031669;28;20426;-65
2021/03/04 07:35:57;;;;;;;2.80;2.37;;;22.70;47.90;;;;;;5032868;28;20417;-67
2021/03/04 07:38:27;;;;;;;3.70;2.33;;;22.70;47.90;;;;;;5033345;28;20477;-67
2021/03/04 07:41:04;;;;;;;2.57;2.00;;;22.70;47.90;;;;;;5032839;28;20410;-67
2021/03/04 07:43:41;;;;;;;2.87;2.13;;;22.70;47.90;;;;;;5035352;28;20770;-67
2021/03/04 07:46:07;;;;;;;2.40;2.20;;;22.70;47.90;;;;;;5037234;28;20399;-67
2021/03/04 07:48:33;;;;;;;2.77;1.97;;;22.80;48.00;;;;;;5038190;28;20434;-64
2021/03/04 07:50:59;;;;;;;2.43;2.10;;;22.80;48.00;;;;;;5037110;28;20643;-67
2021/03/04 07:53:26;;;;;;;3.20;2.20;;;22.80;47.90;;;;;;5036705;28;20476;-67
2021/03/04 07:55:52;;;;;;;6.10;2.70;;;22.80;48.00;;;;;;5036699;28;20180;-67
2021/03/04 07:58:18;;;;;;;3.53;2.37;;;22.80;48.50;;;;;;5036517;28;20531;-65
2021/03/04 08:00:44;;;;;;;2.33;2.13;;;22.80;48.00;;;;;;5035319;28;20481;-67
2021/03/04 08:03:10;;;;;;;3.10;2.43;;;22.80;47.90;;;;;;5035301;28;20424;-66
2021/03/04 08:05:38;;;;;;;2.20;2.00;;;22.80;47.90;;;;;;5036462;28;20419;-67
2021/03/04 08:08:20;;;;;;;3.90;2.30;;;22.80;47.90;;;;;;5036430;28;20434;-67
2021/03/04 08:10:54;;;;;;;3.70;2.40;;;22.90;48.00;;;;;;5036707;28;20755;-67
2021/03/04 08:13:34;;;;;;;5.50;2.10;;;22.90;48.00;;;;;;5035889;28;20889;-67
2021/03/04 08:16:00;;;;;;;2.73;2.27;;;22.90;48.00;;;;;;5036349;28;20476;-67
2021/03/04 08:18:26;;;;;;;2.40;2.00;;;22.90;48.00;;;;;;5034876;28;20524;-66
2021/03/04 08:21:03;;;;;;;4.47;2.57;;;22.80;47.90;;;;;;5036542;28;20832;-67
2021/03/04 08:23:29;;;;;;;2.90;2.40;;;22.90;48.00;;;;;;5036380;28;20394;-68
2021/03/04 08:25:56;;;;;;;3.70;2.77;;;22.90;48.00;;;;;;5036222;28;20749;-66
2021/03/04 08:28:26;;;;;;;2.73;2.10;;;22.90;47.90;;;;;;5036041;28;20438;-67
2021/03/04 08:30:52;;;;;;;2.93;2.03;;;22.90;47.90;;;;;;5036308;28;20414;-66
2021/03/04 08:33:18;;;;;;;2.30;2.10;;;22.90;47.90;;;;;;5036085;28;20438;-67
2021/03/04 08:35:46;;;;;;;2.07;1.87;;;23.00;48.00;;;;;;5034709;28;20421;-67
2021/03/04 08:38:13;;;;;;;2.97;2.77;;;22.90;47.90;;;;;;5035838;28;20986;-68
2021/03/04 08:40:43;;;;;;;2.60;2.40;;;22.90;48.00;;;;;;5034657;28;20852;-67
2021/03/04 08:43:10;;;;;;;3.10;2.60;;;23.00;48.00;;;;;;5035858;28;20406;-68
2021/03/04 08:45:36;;;;;;;2.40;2.20;;;23.00;48.00;;;;;;5035814;28;20431;-68
2021/03/04 08:48:06;;;;;;;3.60;2.47;;;23.00;48.00;;;;;;5034880;28;20509;-67
2021/03/04 08:50:36;;;;;;;2.53;2.33;;;23.00;48.00;;;;;;5034534;28;20178;-66
2021/03/04 08:53:11;;;;;;;2.27;2.07;;;23.00;48.00;;;;;;5035597;28;20454;-66
2021/03/04 08:55:47;;;;;;;4.30;2.10;;;23.00;48.00;;;;;;5034693;28;20390;-66
2021/03/04 08:58:13;;;;;;;3.20;2.03;;;23.00;48.00;;;;;;5035415;28;20959;-67
2021/03/04 09:00:39;;;;;;;2.63;2.20;;;23.00;48.00;;;;;;5035522;28;20438;-68
2021/03/04 09:03:09;;;;;;;3.60;2.37;;;23.00;48.00;;;;;;5034184;28;20813;-66
2021/03/04 09:05:34;;;;;;;3.10;2.20;;;23.00;48.00;;;;;;5035455;28;20172;-65
2021/03/04 09:08:06;;;;;;;2.37;2.00;;;23.00;48.00;;;;;;5034074;28;20964;-67
2021/03/04 09:10:51;;;;;;;2.30;2.03;;;23.00;48.00;;;;;;5035468;28;20148;-67
2021/03/04 09:13:24;;;;;;;2.70;2.27;;;23.00;48.00;;;;;;5035319;28;20395;-66
2021/03/04 09:15:53;;;;;;;2.50;2.30;;;23.00;48.00;;;;;;5035180;28;20407;-68
2021/03/04 09:18:19;;;;;;;2.23;2.03;;;23.00;48.10;;;;;;5034611;28;21031;-68
2021/03/04 09:20:47;;;;;;;2.60;2.23;;;23.00;48.10;;;;;;5033272;28;20896;-68
2021/03/04 09:23:13;;;;;;;2.57;2.27;;;23.00;48.10;;;;;;5034637;28;20445;-66
2021/03/04 09:25:39;;;;;;;4.57;2.40;;;23.00;48.10;;;;;;5035016;28;20779;-67
2021/03/04 09:28:13;;;;;;;2.10;1.90;;;22.90;48.00;;;;;;5034962;28;20425;-68
2021/03/04 09:30:39;;;;;;;3.10;2.20;;;23.00;48.10;;;;;;5033741;28;20421;-67
2021/03/04 09:33:15;;;;;;;3.40;2.23;;;22.90;48.10;;;;;;5033682;28;20783;-68
2021/03/04 09:35:54;;;;;;;2.80;2.13;;;23.00;48.10;;;;;;5034983;28;20704;-65
2021/03/04 09:38:20;;;;;;;4.03;2.20;;;22.90;48.00;;;;;;5034659;28;20501;-68
2021/03/04 09:40:46;;;;;;;2.77;2.20;;;22.90;48.10;;;;;;5035074;28;20442;-66
2021/03/04 09:43:16;;;;;;;2.80;1.90;;;22.90;48.10;;;;;;5034841;28;20176;-66
2021/03/04 09:45:50;;;;;;;2.30;2.00;;;22.90;48.10;;;;;;5035018;28;20623;-67
2021/03/04 09:48:16;;;;;;;2.53;2.33;;;22.90;48.10;;;;;;5034891;28;20471;-67
2021/03/04 09:50:53;;;;;;;3.13;2.10;;;22.90;48.20;;;;;;5034591;28;20812;-66
2021/03/04 09:53:19;;;;;;;2.07;1.80;;;22.90;48.20;;;;;;5033304;28;20612;-67
2021/03/04 09:55:45;;;;;;;3.63;2.00;;;22.90;48.20;;;;;;5033296;28;20509;-68
2021/03/04 09:58:15;;;;;;;3.20;2.40;;;22.90;48.20;;;;;;5033121;28;20547;-67
2021/03/04 10:00:42;;;;;;;2.63;2.40;;;22.90;48.20;;;;;;5034446;28;20797;-66
2021/03/04 10:03:11;;;;;;;2.20;2.00;;;22.90;48.20;;;;;;5034401;28;20467;-67
2021/03/04 10:05:51;;;;;;;2.80;1.80;;;22.90;48.20;;;;;;5034066;28;20438;-68
2021/03/04 10:08:17;;;;;;;2.17;1.97;;;22.90;48.20;;;;;;5034203;28;20430;-67
2021/03/04 10:10:45;;;;;;;3.90;1.90;;;22.90;48.30;;;;;;5034224;28;20828;-66
2021/03/04 10:13:10;;;;;;;3.03;2.20;;;22.90;48.30;;;;;;5034474;28;20486;-66
2021/03/04 10:15:42;;;;;;;3.20;2.30;;;22.90;48.30;;;;;;5032885;28;20505;-68
2021/03/04 10:18:13;;;;;;;2.80;2.60;;;22.90;48.30;;;;;;5034122;28;20199;-67
2021/03/04 10:20:41;;;;;;;2.53;2.20;;;22.90;48.30;;;;;;5034298;28;20391;-68
2021/03/04 10:23:08;;;;;;;4.17;2.00;;;22.80;48.30;;;;;;5033946;28;20494;-67
2021/03/04 10:25:33;;;;;;;4.00;2.60;;;22.80;48.40;;;;;;5033878;28;20509;-67
2021/03/04 10:27:59;;;;;;;3.33;2.50;;;22.90;48.50;;;;;;5034054;28;20802;-67
2021/03/04 10:30:26;;;;;;;2.33;1.80;;;22.90;48.50;;;;;;5033915;28;20227;-68
2021/03/04 10:32:53;;;;;;;4.20;2.60;;;22.90;48.50;;;;;;5034088;28;20200;-67
2021/03/04 10:35:19;;;;;;;2.70;2.50;;;22.90;48.50;;;;;;5033737;28;20438;-66
2021/03/04 10:37:48;;;;;;;2.87;2.13;;;23.00;48.50;;;;;;5033543;28;20466;-68
2021/03/04 10:40:15;;;;;;;2.60;2.00;;;23.00;48.50;;;;;;5033608;28;20461;-67
2021/03/04 10:42:42;;;;;;;2.57;2.37;;;23.00;48.50;;;;;;5034370;28;20898;-67
2021/03/04 10:45:10;;;;;;;2.50;1.93;;;23.00;48.50;;;;;;5033572;28;20411;-68
2021/03/04 10:47:36;;;;;;;3.20;2.50;;;23.00;48.40;;;;;;5033566;28;20941;-68
2021/03/04 10:50:04;;;;;;;2.30;1.90;;;23.00;48.40;;;;;;5033562;28;20406;-66
2021/03/04 10:52:30;;;;;;;2.43;1.83;;;23.10;48.50;;;;;;5033457;28;20414;-68
2021/03/04 10:54:55;;;;;;;2.63;2.20;;;23.10;48.50;;;;;;5033421;28;20422;-67
2021/03/04 10:57:21;;;;;;;2.20;2.00;;;23.10;48.40;;;;;;5032031;28;20290;-67
2021/03/04 10:59:47;;;;;;;2.67;2.47;;;23.10;48.50;;;;;;5033274;28;20207;-68
2021/03/04 11:02:12;;;;;;;3.43;2.20;;;23.10;48.50;;;;;;5033320;28;20163;-67
2021/03/04 11:04:38;;;;;;;2.50;2.27;;;23.10;48.50;;;;;;5033417;28;20237;-67
2021/03/04 11:07:04;;;;;;;2.20;2.00;;;23.10;48.50;;;;;;5033113;28;20171;-67
2021/03/04 11:09:29;;;;;;;2.20;2.00;;;23.10;48.50;;;;;;5033127;28;20591;-66
2021/03/04 11:11:55;;;;;;;3.77;2.57;;;23.10;48.50;;;;;;5033098;28;20595;-67
2021/03/04 11:14:20;;;;;;;2.80;1.87;;;23.10;48.50;;;;;;5033075;28;20226;-65
2021/03/04 11:16:46;;;;;;;2.17;1.77;;;23.20;48.60;;;;;;5032632;28;20652;-66
2021/03/04 11:19:12;;;;;;;2.30;1.90;;;23.20;48.50;;;;;;5032650;28;20236;-68
2021/03/04 11:21:39;;;;;;;2.00;1.80;;;23.20;48.50;;;;;;5033363;28;20199;-66
2021/03/04 11:24:09;;;;;;;2.00;1.80;;;23.20;48.50;;;;;;5032847;28;20428;-68
2021/03/04 11:26:38;;;;;;;3.07;2.37;;;23.20;48.50;;;;;;5033086;28;20399;-68
2021/03/04 11:29:07;;;;;;;2.93;1.77;;;23.20;48.50;;;;;;5032815;28;20434;-66
2021/03/04 11:31:34;;;;;;;2.67;2.40;;;23.20;48.50;;;;;;5032766;28;20472;-68
2021/03/04 11:34:00;;;;;;;2.70;2.00;;;23.20;48.40;;;;;;5033236;28;20414;-67
2021/03/04 11:36:28;;;;;;;1.93;1.60;;;23.20;48.40;;;;;;5033640;28;20417;-67
2021/03/04 11:38:53;;;;;;;2.10;1.57;;;23.30;48.50;;;;;;5032641;28;20302;-67
2021/03/04 11:41:19;;;;;;;2.90;2.17;;;23.30;48.50;;;;;;5032797;28;20473;-67
2021/03/04 11:43:45;;;;;;;3.60;2.00;;;23.20;48.40;;;;;;5033079;28;20192;-68
2021/03/04 11:46:12;;;;;;;2.70;2.10;;;23.30;48.50;;;;;;5032961;28;20174;-66
2021/03/04 11:48:37;;;;;;;6.63;2.13;;;23.30;48.50;;;;;;5032997;28;20254;-66
2021/03/04 11:51:03;;;;;;;2.47;2.00;;;23.30;48.50;;;;;;5032944;28;20414;-67
2021/03/04 11:53:29;;;;;;;1.97;1.50;;;23.30;48.50;;;;;;5032743;28;20180;-67
2021/03/04 11:55:54;;;;;;;1.93;1.73;;;23.30;48.40;;;;;;5032982;28;20218;-67
2021/03/04 11:58:20;;;;;;;2.40;1.97;;;23.30;48.50;;;;;;5032531;28;20192;-67
2021/03/04 12:00:45;;;;;;;2.30;1.97;;;23.30;48.50;;;;;;5030585;28;20187;-68
2021/03/04 12:03:11;;;;;;;2.20;2.00;;;23.30;48.40;;;;;;5031602;28;20557;-68
2021/03/04 12:05:36;;;;;;;2.13;1.93;;;23.30;48.50;;;;;;5032307;28;20176;-68
2021/03/04 12:08:02;;;;;;;2.87;2.00;;;23.30;48.40;;;;;;5032571;28;20222;-67
2021/03/04 12:10:28;;;;;;;1.77;1.63;;;23.30;48.40;;;;;;5032584;28;20172;-66
2021/03/04 12:12:54;;;;;;;3.33;2.00;;;23.30;48.40;;;;;;5031368;28;20706;-68
2021/03/04 12:15:20;;;;;;;2.63;1.93;;;23.30;48.40;;;;;;5032565;28;20199;-66
2021/03/04 12:17:46;;;;;;;2.40;1.83;;;23.30;48.40;;;;;;5032772;28;20184;-66
2021/03/04 12:20:12;;;;;;;2.47;2.27;;;23.30;48.70;;;;;;5032469;28;20979;-68
2021/03/04 12:22:38;;;;;;;2.50;1.80;;;23.30;48.30;;;;;;5032497;28;20176;-67
2021/03/04 12:25:06;;;;;;;2.17;1.97;;;23.30;48.30;;;;;;5032415;28;20453;-67
2021/03/04 12:27:31;;;;;;;3.03;2.43;;;23.30;48.20;;;;;;5032312;28;20249;-69
2021/03/04 12:29:57;;;;;;;2.13;1.90;;;23.30;48.80;;;;;;5033926;28;20928;-69
2021/03/04 12:32:23;;;;;;;2.60;1.80;;;23.30;48.20;;;;;;5036055;28;20544;-69
2021/03/04 12:34:48;;;;;;;3.80;2.17;;;23.30;48.20;;;;;;5036073;28;20168;-68
2021/03/04 12:37:14;;;;;;;3.10;1.93;;;23.30;48.20;;;;;;5035731;28;20646;-66
2021/03/04 12:39:39;;;;;;;3.03;2.00;;;23.30;48.20;;;;;;5035839;28;20205;-66
2021/03/04 12:42:05;;;;;;;3.77;2.27;;;23.30;48.20;;;;;;5035916;28;20668;-67
2021/03/04 12:44:31;;;;;;;2.13;1.90;;;23.30;48.20;;;;;;5035858;28;20663;-68
2021/03/04 12:46:56;;;;;;;4.17;2.47;;;23.30;48.20;;;;;;5036006;28;20187;-67
2021/03/04 12:49:22;;;;;;;2.00;1.80;;;23.30;48.20;;;;;;5034626;28;20210;-68
2021/03/04 12:51:47;;;;;;;2.33;2.00;;;23.30;48.20;;;;;;5034543;28;20175;-66